Gravenhurst, Canada
Current Conditions -  °F | °C
As of 7:00 AM on Wednesday 28 Jan 2015 (Local Time) from CYQA Reporting Station
Clear Clear  
Wind Chill: -15°   Ceiling: Unl
Heat Index: -15°   Visibility: 9mi
Dew Point: -20°   Wind: 0mph
Humidity: 77%   Direction: NA
Pressure: 30.19"   Gusts: NA
Location:  44.92°N, 79.37°W
Report Text: CYQA 281200Z AUTO 00000KT 9SM CLR M26/M29 A3019 RMK SLP254
Loading
Personal Weather Stations






























Interactive Weather Map New forecast layout! Learn more

10-Day Weather Forecast

Advertisements
Track Severe Weather on mobile